Time;durP1;ratioP1;P1;durP2;ratioP2;P2;SDS_P1;SDS_P2;PMS_P1;PMS_P2;Temp;Humidity;BMP_temperature;BMP_pressure;BME280_temperature;BME280_humidity;BME280_pressure;Samples;Min_cycle;Max_cycle;Signal;HPM_P1;HPM_P2
2021/10/31 00:01:28;;;;;;;54.33;25.97;;;;;;;1.62;100.00;100645.84;1617396;88;21593;-83
2021/10/31 00:03:56;;;;;;;50.95;28.30;;;;;;;1.57;100.00;100642.17;1623070;87;20951;-87
2021/10/31 00:06:22;;;;;;;66.97;30.50;;;;;;;1.55;100.00;100636.16;1626433;86;21063;-88
2021/10/31 00:08:49;;;;;;;47.43;25.62;;;;;;;1.57;100.00;100640.81;1626568;87;21011;-87
2021/10/31 00:11:17;;;;;;;46.68;26.73;;;;;;;1.55;100.00;100635.63;1626586;88;21055;-88
2021/10/31 00:13:44;;;;;;;64.90;29.30;;;;;;;1.52;100.00;100632.03;1626941;88;21143;-86
2021/10/31 00:16:10;;;;;;;47.48;24.87;;;;;;;1.49;100.00;100629.78;1626509;88;20964;-87
2021/10/31 00:18:37;;;;;;;67.47;30.55;;;;;;;1.47;100.00;100638.66;1626364;87;21081;-86
2021/10/31 00:21:04;;;;;;;44.95;26.02;;;;;;;1.42;100.00;100627.70;1626610;88;21003;-89
2021/10/31 00:23:32;;;;;;;45.43;25.12;;;;;;;1.37;100.00;100624.03;1626649;88;21054;-90
2021/10/31 00:25:58;;;;;;;83.95;29.75;;;;;;;1.34;100.00;100622.60;1626585;88;21041;-88
2021/10/31 00:28:25;;;;;;;76.50;29.40;;;;;;;1.28;100.00;100624.34;1626641;88;20951;-88
2021/10/31 00:30:52;;;;;;;63.85;29.32;;;;;;;1.23;100.00;100618.79;1626476;88;20978;-86
2021/10/31 00:33:20;;;;;;;57.38;26.73;;;;;;;1.19;100.00;100614.06;1626395;88;20916;-85
2021/10/31 00:35:47;;;;;;;48.92;24.60;;;;;;;1.12;100.00;100616.89;1626670;88;20904;-86
2021/10/31 00:38:13;;;;;;;57.75;23.55;;;;;;;1.09;100.00;100615.98;1627083;87;21498;-84
2021/10/31 00:40:41;;;;;;;60.40;29.80;;;;;;;1.07;100.00;100614.03;1626736;88;20904;-78
2021/10/31 00:43:07;;;;;;;50.25;27.22;;;;;;;1.01;100.00;100609.53;1627048;88;20972;-83
2021/10/31 00:45:35;;;;;;;57.80;29.50;;;;;;;0.98;100.00;100608.11;1626807;88;21001;-84
2021/10/31 00:48:01;;;;;;;44.93;26.50;;;;;;;0.97;100.00;100609.69;1627045;88;21078;-83
2021/10/31 00:50:28;;;;;;;68.07;29.52;;;;;;;0.97;100.00;100612.39;1626889;88;21154;-83
2021/10/31 00:52:54;;;;;;;52.33;28.20;;;;;;;0.96;100.00;100606.16;1627012;88;21517;-82
2021/10/31 00:55:21;;;;;;;64.70;31.70;;;;;;;0.96;100.00;100603.98;1606852;88;21541;-84
2021/10/31 00:57:48;;;;;;;57.27;28.87;;;;;;;0.96;100.00;100602.63;1626772;87;21523;-83
2021/10/31 01:00:15;;;;;;;45.30;24.92;;;;;;;0.93;100.00;100598.50;1626775;88;21556;-83
2021/10/31 01:02:43;;;;;;;52.48;26.75;;;;;;;0.94;100.00;100603.38;1626882;86;21189;-84
2021/10/31 01:05:14;;;;;;;58.25;30.08;;;;;;;0.96;100.00;100597.22;1626929;88;20924;-85
2021/10/31 01:08:21;;;;;;;71.67;31.97;;;;;;;0.97;100.00;100599.70;1646084;86;20952;-84
2021/10/31 01:11:23;;;;;;;60.30;30.05;;;;;;;0.98;100.00;100595.94;1639107;86;20889;-83
2021/10/31 01:14:41;;;;;;;58.83;29.98;;;;;;;0.98;100.00;100596.47;1603964;86;21473;-83
2021/10/31 01:17:48;;;;;;;57.53;30.27;;;;;;;0.96;100.00;100590.47;1633639;86;21097;-83
2021/10/31 01:20:25;;;;;;;59.50;28.92;;;;;;;0.95;100.00;100586.11;1632374;86;21017;-83
2021/10/31 01:23:24;;;;;;;40.80;23.32;;;;;;;0.89;100.00;100579.73;1633131;86;20968;-79
2021/10/31 01:26:14;;;;;;;53.95;29.10;;;;;;;0.87;100.00;100578.30;1634518;86;20956;-85
2021/10/31 01:29:01;;;;;;;44.58;26.07;;;;;;;0.83;100.00;100579.81;1634168;86;20949;-80
2021/10/31 01:31:40;;;;;;;53.20;27.82;;;;;;;0.78;100.00;100579.66;1633752;86;21877;-80
2021/10/31 01:34:43;;;;;;;48.60;27.22;;;;;;;0.74;100.00;100579.29;1632107;86;20921;-80
2021/10/31 01:37:19;;;;;;;46.15;26.35;;;;;;;0.71;100.00;100568.93;1633936;86;21456;-83
2021/10/31 01:39:51;;;;;;;50.03;28.20;;;;;;;0.68;100.00;100568.55;1632137;86;20913;-82
2021/10/31 01:42:28;;;;;;;54.40;30.32;;;;;;;0.66;100.00;100568.26;1637936;86;21505;-87
2021/10/31 01:45:03;;;;;;;48.28;27.62;;;;;;;0.63;100.00;100566.53;1627696;86;21199;-88
2021/10/31 01:48:01;;;;;;;45.80;27.00;;;;;;;0.61;100.00;100563.23;1624943;86;20917;-89
2021/10/31 01:50:43;;;;;;;48.52;27.13;;;;;;;0.59;100.00;100571.56;1606616;88;20933;-89
2021/10/31 01:53:16;;;;;;;45.80;26.20;;;;;;;0.61;100.00;100569.98;1605265;88;20990;-86
2021/10/31 01:56:12;;;;;;;51.65;27.55;;;;;;;0.59;100.00;100566.16;1605411;88;21028;-82
2021/10/31 01:58:44;;;;;;;57.20;29.57;;;;;;;0.56;100.00;100557.70;1605570;88;21187;-88
2021/10/31 02:01:10;;;;;;;46.40;26.70;;;;;;;0.52;100.00;100555.16;1604863;88;20965;-84
2021/10/31 02:03:38;;;;;;;47.50;27.05;;;;;;;0.51;100.00;100558.91;1604975;88;20977;-84
2021/10/31 02:06:05;;;;;;;55.43;28.45;;;;;;;0.48;100.00;100558.00;1604164;88;21037;-79
2021/10/31 02:08:34;;;;;;;46.35;26.50;;;;;;;0.43;100.00;100555.16;1625580;88;21059;-80
2021/10/31 02:11:00;;;;;;;55.25;27.13;;;;;;;0.40;100.00;100551.55;1625543;88;21194;-81
2021/10/31 02:13:27;;;;;;;49.65;26.80;;;;;;;0.38;100.00;100544.19;1625460;88;21036;-83
2021/10/31 02:15:55;;;;;;;49.35;27.32;;;;;;;0.35;100.00;100545.47;1625609;88;20976;-81
2021/10/31 02:18:23;;;;;;;43.25;24.85;;;;;;;0.30;100.00;100541.27;1625550;88;21083;-80
2021/10/31 02:20:55;;;;;;;48.63;27.90;;;;;;;0.28;100.00;100544.71;1625547;88;21491;-81
2021/10/31 02:23:21;;;;;;;49.38;27.40;;;;;;;0.24;100.00;100545.68;1625639;88;21154;-82
2021/10/31 02:25:48;;;;;;;47.43;26.35;;;;;;;0.22;100.00;100542.37;1625671;88;20924;-83
2021/10/31 02:28:14;;;;;;;48.68;26.50;;;;;;;0.21;100.00;100552.05;1625598;88;20969;-81
2021/10/31 02:30:42;;;;;;;50.73;27.50;;;;;;;0.18;100.00;100547.10;1625679;88;20973;-82
2021/10/31 02:33:09;;;;;;;52.83;29.25;;;;;;;0.13;100.00;100544.24;1625538;88;20929;-83
2021/10/31 02:35:35;;;;;;;47.85;25.88;;;;;;;0.09;100.00;100547.08;1625960;88;21510;-82
2021/10/31 02:38:02;;;;;;;50.00;26.35;;;;;;;0.07;100.00;100551.88;1625459;88;21011;-85
2021/10/31 02:40:31;;;;;;;50.55;26.20;;;;;;;0.07;100.00;100551.88;1625456;88;20940;-88
2021/10/31 02:42:59;;;;;;;53.08;27.48;;;;;;;0.06;100.00;100553.75;1625536;88;21444;-85
2021/10/31 02:45:25;;;;;;;51.35;27.60;;;;;;;0.05;100.00;100545.87;1625518;88;21591;-83
2021/10/31 02:47:55;;;;;;;55.03;28.50;;;;;;;0.06;100.00;100544.30;1625513;88;21045;-87
2021/10/31 02:50:30;;;;;;;53.25;28.70;;;;;;;0.05;100.00;100544.53;1625698;88;20965;-88
2021/10/31 02:53:11;;;;;;;45.10;25.70;;;;;;;0.02;100.00;100544.45;1625504;88;21515;-86
2021/10/31 02:55:58;;;;;;;55.03;28.50;;;;;;;-0.01;100.00;100545.75;1625884;88;20920;-83
2021/10/31 02:58:50;;;;;;;54.20;27.62;;;;;;;-0.04;100.00;100550.24;1625642;88;20933;-84
2021/10/31 03:01:17;;;;;;;53.60;26.87;;;;;;;-0.07;100.00;100547.16;1625198;88;21185;-83
2021/10/31 03:03:44;;;;;;;58.73;27.02;;;;;;;-0.13;100.00;100550.22;1650879;86;20912;-84
2021/10/31 03:06:12;;;;;;;49.30;26.73;;;;;;;-0.16;100.00;100548.48;1653506;86;20916;-84
2021/10/31 03:08:39;;;;;;;49.95;26.68;;;;;;;-0.20;100.00;100541.35;1630571;86;20964;-79
2021/10/31 03:11:08;;;;;;;51.63;28.83;;;;;;;-0.22;100.00;100541.27;1629058;87;21004;-79
2021/10/31 03:13:36;;;;;;;56.95;29.15;;;;;;;-0.24;100.00;100540.14;1628713;87;21148;-83
2021/10/31 03:16:05;;;;;;;60.33;29.67;;;;;;;-0.27;100.00;100540.58;1628572;88;21511;-83
2021/10/31 03:18:32;;;;;;;67.90;29.55;;;;;;;-0.28;100.00;100538.11;1628724;88;21051;-80
2021/10/31 03:20:59;;;;;;;58.15;28.65;;;;;;;-0.27;100.00;100541.93;1628947;88;20917;-80
2021/10/31 03:23:26;;;;;;;59.18;29.40;;;;;;;-0.25;100.00;100540.36;1628814;87;21088;-81
2021/10/31 03:25:52;;;;;;;61.73;30.57;;;;;;;-0.26;100.00;100537.36;1628951;88;22207;-87
2021/10/31 03:28:19;;;;;;;57.15;28.85;;;;;;;-0.27;100.00;100536.53;1628613;87;21454;-86
2021/10/31 03:30:46;;;;;;;55.48;27.82;;;;;;;-0.27;100.00;100535.70;1613462;87;21447;-82
2021/10/31 03:33:13;;;;;;;58.85;32.15;;;;;;;-0.28;100.00;100540.28;1603116;88;21007;-79
2021/10/31 03:35:39;;;;;;;52.17;27.50;;;;;;;-0.29;100.00;100543.20;1602848;88;20965;-80
2021/10/31 03:38:06;;;;;;;57.25;28.17;;;;;;;-0.30;100.00;100540.20;1603046;88;21113;-80
2021/10/31 03:40:34;;;;;;;58.30;28.35;;;;;;;-0.31;100.00;100539.38;1591979;89;20979;-86
2021/10/31 03:43:00;;;;;;;66.22;31.27;;;;;;;-0.30;100.00;100538.33;1603011;89;20953;-85
2021/10/31 03:45:27;;;;;;;52.33;29.45;;;;;;;-0.25;100.00;100539.84;1602915;89;21001;-86
2021/10/31 03:47:53;;;;;;;57.85;29.72;;;;;;;-0.21;100.00;100538.35;1602833;88;21011;-85
2021/10/31 03:50:24;;;;;;;58.83;29.72;;;;;;;-0.17;100.00;100532.81;1602828;88;21520;-88
2021/10/31 03:52:51;;;;;;;60.20;31.10;;;;;;;-0.14;100.00;100526.15;1610103;87;21459;-88
2021/10/31 03:55:18;;;;;;;60.03;30.48;;;;;;;-0.12;100.00;100528.10;1617133;88;21471;-88
2021/10/31 03:57:44;;;;;;;60.12;29.32;;;;;;;-0.08;100.00;100531.48;1628965;88;21538;-89
2021/10/31 04:00:13;;;;;;;59.85;31.35;;;;;;;-0.05;100.00;100526.17;1628771;88;20917;-90
2021/10/31 04:02:40;;;;;;;70.17;30.57;;;;;;;-0.03;100.00;100527.59;1628904;86;21099;-84
2021/10/31 04:05:08;;;;;;;58.92;29.48;;;;;;;0.03;100.00;100527.72;1628691;88;21435;-85
2021/10/31 04:07:35;;;;;;;60.10;31.40;;;;;;;0.06;100.00;100521.87;1641098;86;21003;-86
2021/10/31 04:10:06;;;;;;;53.60;28.92;;;;;;;0.07;100.00;100523.01;1665653;86;20927;-86
2021/10/31 04:12:35;;;;;;;58.80;29.90;;;;;;;0.09;100.00;100512.81;1662757;86;21490;-86
2021/10/31 04:15:04;;;;;;;57.93;29.55;;;;;;;0.13;100.00;100513.19;1660269;86;21915;-82
2021/10/31 04:17:32;;;;;;;53.35;29.70;;;;;;;0.13;100.00;100515.36;1665738;86;21444;-86
2021/10/31 04:19:59;;;;;;;50.30;26.85;;;;;;;0.15;100.00;100509.73;1663978;84;20932;-87
2021/10/31 04:22:28;;;;;;;53.10;29.07;;;;;;;0.12;100.00;100508.31;1664344;84;20956;-86
2021/10/31 04:24:56;;;;;;;55.95;29.18;;;;;;;0.10;100.00;100502.84;1676449;84;21530;-84
2021/10/31 04:27:22;;;;;;;56.48;29.07;;;;;;;0.12;100.00;100502.09;1655192;85;22591;-83
2021/10/31 04:29:49;;;;;;;59.15;29.42;;;;;;;0.11;100.00;100497.73;1665701;86;21510;-78
2021/10/31 04:32:16;;;;;;;49.88;27.62;;;;;;;0.10;100.00;100494.21;1665977;86;21004;-78
2021/10/31 04:34:42;;;;;;;55.52;26.90;;;;;;;0.10;100.00;100498.78;1665727;86;21003;-75
2021/10/31 04:37:08;;;;;;;59.65;27.30;;;;;;;0.09;100.00;100491.73;1666033;86;21431;-77
2021/10/31 04:39:35;;;;;;;51.90;28.98;;;;;;;0.09;100.00;100491.73;1665732;86;21500;-80
2021/10/31 04:42:07;;;;;;;52.93;28.60;;;;;;;0.11;100.00;100493.69;1665675;86;20995;-77
2021/10/31 04:44:32;;;;;;;56.20;29.85;;;;;;;0.13;100.00;100491.59;1665109;85;21442;-81
2021/10/31 04:46:58;;;;;;;51.92;26.95;;;;;;;0.15;100.00;100491.67;1665936;86;21428;-80
2021/10/31 04:49:25;;;;;;;57.10;30.82;;;;;;;0.18;100.00;100489.05;1657698;86;21518;-83
2021/10/31 04:51:52;;;;;;;52.93;26.27;;;;;;;0.18;100.00;100484.98;1649121;86;21581;-86
2021/10/31 04:54:19;;;;;;;50.35;27.45;;;;;;;0.18;100.00;100483.64;1638592;87;20959;-83
2021/10/31 04:56:45;;;;;;;55.52;29.98;;;;;;;0.17;100.00;100481.99;1638887;87;21023;-80
2021/10/31 04:59:11;;;;;;;58.17;29.42;;;;;;;0.17;100.00;100490.09;1638630;87;20995;-84
2021/10/31 05:01:38;;;;;;;56.15;28.30;;;;;;;0.18;100.00;100489.05;1642407;86;20987;-88
2021/10/31 05:04:05;;;;;;;60.75;31.35;;;;;;;0.17;100.00;100493.62;1663898;86;21501;-86
2021/10/31 05:06:31;;;;;;;61.83;30.45;;;;;;;0.16;100.00;100494.66;1665572;86;21518;-81
2021/10/31 05:08:58;;;;;;;58.87;30.50;;;;;;;0.14;100.00;100493.23;1636684;86;20920;-80
2021/10/31 05:11:25;;;;;;;50.63;27.48;;;;;;;0.11;100.00;100495.03;1628709;87;21571;-78
2021/10/31 05:13:53;;;;;;;57.58;28.98;;;;;;;0.07;100.00;100493.31;1628657;87;21487;-75
2021/10/31 05:16:19;;;;;;;52.67;28.27;;;;;;;0.04;100.00;100492.41;1628671;88;21080;-76
2021/10/31 05:18:46;;;;;;;52.60;27.48;;;;;;;0.04;100.00;100496.98;1628550;87;20968;-74
2021/10/31 05:21:12;;;;;;;54.10;31.90;;;;;;;0.04;100.00;100501.03;1628691;88;20965;-76
2021/10/31 05:23:39;;;;;;;50.95;28.10;;;;;;;0.05;100.00;100494.58;1628898;88;21452;-77
2021/10/31 05:26:06;;;;;;;55.48;27.80;;;;;;;0.06;100.00;100494.88;1628690;87;21016;-76
2021/10/31 05:28:32;;;;;;;56.08;31.33;;;;;;;0.07;100.00;100492.48;1628689;88;21133;-87
2021/10/31 05:30:59;;;;;;;57.10;30.48;;;;;;;0.09;100.00;100494.44;1628608;87;20905;-71
2021/10/31 05:33:26;;;;;;;54.88;30.45;;;;;;;0.11;100.00;100490.46;1628616;88;20956;-71
2021/10/31 05:35:54;;;;;;;56.68;27.90;;;;;;;0.13;100.00;100492.41;1625107;88;21029;-73
2021/10/31 05:38:20;;;;;;;52.10;27.07;;;;;;;0.16;100.00;100493.84;1627306;88;20941;-71
2021/10/31 05:40:49;;;;;;;58.80;30.90;;;;;;;0.18;100.00;100491.22;1627646;88;21443;-72
2021/10/31 05:43:16;;;;;;;61.55;30.08;;;;;;;0.21;100.00;100486.72;1625751;87;21052;-79
2021/10/31 05:45:43;;;;;;;57.70;30.72;;;;;;;0.25;100.00;100488.45;1614793;88;21601;-85
2021/10/31 05:48:10;;;;;;;59.83;30.37;;;;;;;0.30;100.00;100494.82;1613593;88;21807;-77
2021/10/31 05:50:39;;;;;;;57.50;30.77;;;;;;;0.35;100.00;100491.97;1617653;88;21088;-78
2021/10/31 05:53:06;;;;;;;54.30;29.80;;;;;;;0.39;100.00;100489.94;1617240;88;21951;-77
2021/10/31 05:55:34;;;;;;;58.00;30.52;;;;;;;0.44;100.00;100496.84;1615114;87;21051;-79
2021/10/31 05:58:00;;;;;;;59.65;30.50;;;;;;;0.50;100.00;100497.81;1613561;88;21420;-85
2021/10/31 06:00:27;;;;;;;55.60;28.40;;;;;;;0.58;100.00;100503.70;1612527;87;21038;-85
2021/10/31 06:02:53;;;;;;;61.53;31.40;;;;;;;0.63;100.00;100503.85;1614607;88;21047;-79
2021/10/31 06:05:20;;;;;;;60.08;29.82;;;;;;;0.70;100.00;100504.30;1618974;88;21456;-79
2021/10/31 06:07:47;;;;;;;54.67;30.32;;;;;;;0.78;100.00;100501.28;1622951;86;21134;-78
2021/10/31 06:10:14;;;;;;;57.93;31.57;;;;;;;0.87;100.00;100515.60;1669879;84;21035;-80
2021/10/31 06:12:45;;;;;;;60.43;30.48;;;;;;;0.96;100.00;100508.00;1662757;84;20949;-76
2021/10/31 06:15:13;;;;;;;50.98;26.60;;;;;;;1.06;100.00;100514.21;1664808;86;20984;-76
2021/10/31 06:17:40;;;;;;;57.70;30.92;;;;;;;1.30;100.00;100517.26;1664634;86;21463;-76
2021/10/31 06:20:11;;;;;;;57.20;29.40;;;;;;;1.80;100.00;100515.49;1664440;86;20881;-75
2021/10/31 06:22:38;;;;;;;56.40;27.52;;;;;;;2.20;100.00;100516.44;1664575;86;20920;-75
2021/10/31 06:25:08;;;;;;;54.58;29.80;;;;;;;2.31;100.00;100516.13;1664426;86;21011;-83
2021/10/31 06:27:35;;;;;;;48.30;27.27;;;;;;;2.29;100.00;100512.30;1664511;86;21514;-79
2021/10/31 06:30:05;;;;;;;52.38;29.50;;;;;;;2.38;100.00;100518.68;1664896;86;21870;-79
2021/10/31 06:32:31;;;;;;;61.35;32.58;;;;;;;2.81;100.00;100519.05;1664365;86;20961;-78
2021/10/31 06:34:58;;;;;;;64.85;33.65;;;;;;;3.43;100.00;100522.35;1664445;86;20960;-74
2021/10/31 06:37:28;;;;;;;56.68;32.70;;;;;;;4.08;100.00;100521.72;1664522;86;21035;-74
2021/10/31 06:39:54;;;;;;;50.35;27.80;;;;;;;4.62;100.00;100521.39;1664374;86;21074;-76
2021/10/31 06:42:22;;;;;;;49.77;26.70;;;;;;;5.10;100.00;100519.75;1664402;86;23283;-82
2021/10/31 06:44:48;;;;;;;46.85;27.07;;;;;;;5.47;98.84;100517.11;1664404;86;20920;-84
2021/10/31 06:47:17;;;;;;;50.60;26.20;;;;;;;5.77;97.46;100526.09;1664752;86;20967;-84
2021/10/31 06:49:45;;;;;;;54.33;28.10;;;;;;;5.99;94.86;100517.81;1664659;84;20982;-80
2021/10/31 06:52:11;;;;;;;46.73;28.35;;;;;;;6.21;93.11;100513.88;1666935;84;20927;-79
2021/10/31 06:54:40;;;;;;;44.08;27.42;;;;;;;6.42;92.18;100515.33;1683101;84;21164;-78
2021/10/31 06:57:06;;;;;;;44.33;25.82;;;;;;;6.70;90.96;100516.84;1671057;84;21298;-76
2021/10/31 06:59:33;;;;;;;40.43;22.35;;;;;;;7.03;90.02;100512.29;1662006;84;21736;-76
2021/10/31 07:02:00;;;;;;;39.83;27.00;;;;;;;7.34;86.52;100512.36;1682783;84;20999;-79
2021/10/31 07:04:30;;;;;;;63.17;40.03;;;;;;;7.48;85.77;100508.84;1677837;84;21050;-76
2021/10/31 07:06:58;;;;;;;48.40;30.82;;;;;;;7.69;83.63;100508.27;1674413;84;21015;-76
2021/10/31 07:09:26;;;;;;;47.05;29.65;;;;;;;7.86;81.52;100503.90;1658329;84;20968;-81
2021/10/31 07:11:54;;;;;;;63.38;39.50;;;;;;;8.02;81.91;100511.55;1669612;84;21127;-83
2021/10/31 07:14:22;;;;;;;47.25;30.27;;;;;;;8.19;81.06;100506.02;1631052;86;20976;-84
2021/10/31 07:16:48;;;;;;;39.78;26.37;;;;;;;8.44;80.17;100507.91;1631562;86;21004;-85
2021/10/31 07:19:15;;;;;;;39.33;24.60;;;;;;;8.72;77.62;100509.16;1624512;86;21716;-86
2021/10/31 07:21:42;;;;;;;39.15;23.22;;;;;;;8.79;75.00;100512.96;1609702;87;20949;-88
2021/10/31 07:24:08;;;;;;;36.08;26.02;;;;;;;8.69;76.15;100510.27;1684146;84;20951;-78
2021/10/31 07:26:35;;;;;;;39.40;27.07;;;;;;;8.75;75.38;100505.04;1682028;85;21039;-79
2021/10/31 07:29:05;;;;;;;52.33;36.23;;;;;;;8.82;75.39;100510.48;1659488;86;21053;-84
2021/10/31 07:31:36;;;;;;;44.38;29.00;;;;;;;8.91;74.00;100508.80;1657414;85;21168;-83
2021/10/31 07:34:08;;;;;;;45.63;27.95;;;;;;;9.00;73.42;100507.66;1657240;86;21533;-78
2021/10/31 07:36:33;;;;;;;33.63;21.73;;;;;;;9.06;74.01;100505.16;1657622;86;21013;-83
2021/10/31 07:39:00;;;;;;;32.98;18.12;;;;;;;9.19;72.75;100508.66;1657295;86;20950;-81
2021/10/31 07:41:26;;;;;;;40.85;24.23;;;;;;;9.30;72.44;100507.19;1657312;86;21061;-77
2021/10/31 07:43:53;;;;;;;28.77;19.30;;;;;;;9.48;72.96;100509.27;1657470;86;22040;-77
2021/10/31 07:46:21;;;;;;;35.85;22.22;;;;;;;9.78;73.65;100517.81;1657474;86;21512;-77
2021/10/31 07:48:48;;;;;;;31.77;22.20;;;;;;;10.14;71.05;100521.03;1658419;85;20932;-79
2021/10/31 07:51:14;;;;;;;28.35;16.15;;;;;;;10.42;69.49;100511.97;1659512;86;21574;-79
2021/10/31 07:53:42;;;;;;;24.07;15.05;;;;;;;10.65;67.20;100508.15;1650873;86;21481;-88
2021/10/31 07:56:12;;;;;;;20.27;13.70;;;;;;;10.81;67.21;100512.34;1655025;86;22185;-80
2021/10/31 07:58:39;;;;;;;28.45;18.98;;;;;;;10.99;66.73;100514.28;1635911;87;20912;-80
2021/10/31 08:01:06;;;;;;;29.63;20.17;;;;;;;11.16;64.84;100509.66;1638025;86;20967;-79
2021/10/31 08:03:33;;;;;;;24.20;16.62;;;;;;;11.23;64.35;100508.19;1662330;85;21059;-80
2021/10/31 08:06:00;;;;;;;22.17;13.90;;;;;;;11.43;64.10;100510.38;1661344;86;21005;-80
2021/10/31 08:08:27;;;;;;;30.75;19.00;;;;;;;11.51;63.27;100510.52;1654730;86;21519;-80
2021/10/31 08:10:54;;;;;;;23.10;13.83;;;;;;;11.50;62.85;100512.20;1627544;88;21508;-79
2021/10/31 08:13:26;;;;;;;32.83;19.62;;;;;;;11.53;62.65;100506.10;1624870;87;20973;-81
2021/10/31 08:15:54;;;;;;;28.73;18.57;;;;;;;11.66;62.70;100501.19;1626829;88;21012;-74
2021/10/31 08:18:21;;;;;;;29.30;17.75;;;;;;;11.91;62.39;100502.73;1628607;87;20949;-77
2021/10/31 08:20:49;;;;;;;25.88;16.55;;;;;;;12.05;61.02;100500.02;1622815;87;21148;-77
2021/10/31 08:23:16;;;;;;;21.10;10.90;;;;;;;12.17;61.55;100497.58;1618317;87;20937;-78
2021/10/31 08:25:44;;;;;;;21.17;11.30;;;;;;;12.47;59.58;100491.50;1618511;87;21052;-79
2021/10/31 08:28:13;;;;;;;18.73;9.78;;;;;;;12.67;59.67;100496.34;1621692;86;21033;-78
2021/10/31 08:30:44;;;;;;;24.20;13.72;;;;;;;12.85;59.39;100498.15;1617609;88;21579;-77
2021/10/31 08:33:20;;;;;;;17.98;10.75;;;;;;;13.13;58.34;100495.61;1617360;87;21172;-78
2021/10/31 08:35:46;;;;;;;27.45;13.93;;;;;;;13.21;56.22;100498.23;1601504;86;21020;-78
2021/10/31 08:38:13;;;;;;;23.55;12.47;;;;;;;13.09;57.15;100494.59;1617068;88;21047;-79
2021/10/31 08:40:42;;;;;;;31.20;13.25;;;;;;;13.18;57.30;100498.84;1615997;86;21676;-78
2021/10/31 08:43:10;;;;;;;21.20;11.22;;;;;;;13.39;57.09;100495.85;1616448;86;21053;-80
2021/10/31 08:45:39;;;;;;;14.65;9.85;;;;;;;13.50;54.69;100489.53;1606513;88;21148;-76
2021/10/31 08:48:08;;;;;;;21.42;10.60;;;;;;;13.38;55.00;100492.84;1602509;89;21033;-80
2021/10/31 08:50:36;;;;;;;68.80;34.65;;;;;;;13.36;55.44;100490.14;1609322;88;20964;-79
2021/10/31 08:53:04;;;;;;;33.90;17.55;;;;;;;13.42;55.40;100486.95;1602601;88;21004;-81
2021/10/31 08:55:31;;;;;;;75.47;33.88;;;;;;;13.67;55.94;100485.53;1619434;88;20952;-81
2021/10/31 08:57:59;;;;;;;50.75;20.52;;;;;;;14.15;55.54;100486.22;1610411;88;21098;-80
2021/10/31 09:00:26;;;;;;;31.50;14.15;;;;;;;14.63;53.81;100475.23;1602055;88;21602;-80
2021/10/31 09:02:53;;;;;;;126.42;55.17;;;;;;;14.96;52.28;100478.98;1612939;88;21535;-80
2021/10/31 09:05:20;;;;;;;98.35;40.03;;;;;;;15.04;50.53;100474.81;1609808;88;21042;-80
2021/10/31 09:07:48;;;;;;;22.82;11.03;;;;;;;14.87;51.04;100477.58;1602121;88;21089;-79
2021/10/31 09:10:15;;;;;;;42.17;21.80;;;;;;;14.92;50.83;100477.42;1605028;88;21956;-80
2021/10/31 09:12:42;;;;;;;17.35;8.68;;;;;;;15.01;50.84;100482.41;1620786;87;21048;-80
2021/10/31 09:15:09;;;;;;;29.70;12.53;;;;;;;15.16;49.26;100473.61;1621353;88;20954;-79
2021/10/31 09:17:36;;;;;;;18.57;11.35;;;;;;;15.36;50.07;100472.73;1617255;88;21103;-80
2021/10/31 09:20:06;;;;;;;50.55;17.30;;;;;;;15.73;48.99;100468.49;1596951;88;20971;-79
2021/10/31 09:22:33;;;;;;;24.10;11.22;;;;;;;16.00;47.06;100466.73;1596929;89;21553;-80
2021/10/31 09:25:01;;;;;;;17.80;9.85;;;;;;;15.97;46.43;100469.35;1604132;88;21018;-81
2021/10/31 09:27:28;;;;;;;15.08;8.93;;;;;;;15.79;46.76;100465.80;1597052;89;20971;-79
2021/10/31 09:29:54;;;;;;;25.90;10.58;;;;;;;15.60;46.44;100463.38;1597118;89;21031;-82
2021/10/31 09:32:28;;;;;;;14.98;6.90;;;;;;;15.40;47.69;100466.80;1604097;88;20941;-80
2021/10/31 09:34:59;;;;;;;27.27;8.23;;;;;;;15.34;46.76;100466.72;1612667;88;21144;-80
2021/10/31 09:37:26;;;;;;;13.88;6.97;;;;;;;15.33;47.74;100463.14;1615018;88;21072;-80
2021/10/31 09:39:53;;;;;;;15.55;6.90;;;;;;;15.43;46.67;100462.81;1603970;88;21144;-80
2021/10/31 09:42:20;;;;;;;15.98;8.88;;;;;;;15.48;46.94;100459.88;1591822;90;21104;-79
2021/10/31 09:44:49;;;;;;;14.13;7.12;;;;;;;15.64;46.45;100451.08;1591873;89;21000;-81
2021/10/31 09:47:24;;;;;;;11.35;6.90;;;;;;;15.73;46.72;100451.31;1603641;88;21133;-79
2021/10/31 09:49:51;;;;;;;116.62;57.70;;;;;;;15.75;45.73;100446.27;1620739;87;22185;-80
2021/10/31 09:52:18;;;;;;;91.67;34.45;;;;;;;15.61;45.89;100451.16;1618301;87;21628;-79
2021/10/31 09:54:46;;;;;;;68.92;35.95;;;;;;;15.41;45.47;100451.83;1592580;88;39329;-79
2021/10/31 09:57:15;;;;;;;22.58;11.00;;;;;;;15.36;46.78;100445.07;1593810;89;21573;-81
2021/10/31 09:59:49;;;;;;;35.68;18.40;;;;;;;15.57;46.01;100444.69;1593740;89;21156;-80
2021/10/31 10:02:14;;;;;;;58.30;26.65;;;;;;;15.70;44.82;100442.28;1600221;87;20985;-79
2021/10/31 10:04:50;;;;;;;24.37;12.03;;;;;;;15.63;45.54;100438.38;1600680;88;20965;-79
2021/10/31 10:07:18;;;;;;;27.70;14.60;;;;;;;15.56;44.69;100427.00;1600564;88;21047;-79
2021/10/31 10:09:55;;;;;;;15.53;8.33;;;;;;;15.33;45.12;100431.32;1639305;85;21020;-77
2021/10/31 10:12:25;;;;;;;16.48;8.30;;;;;;;15.40;45.48;100433.59;1680390;85;21137;-78
2021/10/31 10:15:04;;;;;;;21.35;10.43;;;;;;;15.56;45.90;100420.08;1653274;85;20975;-74
2021/10/31 10:17:50;;;;;;;21.33;11.50;;;;;;;15.79;45.08;100418.16;1643093;85;22214;-74
2021/10/31 10:20:19;;;;;;;19.45;12.90;;;;;;;16.01;44.38;100417.70;1622851;88;21047;-72
2021/10/31 10:22:47;;;;;;;94.87;65.35;;;;;;;16.26;43.45;100408.45;1623036;88;20949;-72
2021/10/31 10:25:15;;;;;;;15.13;7.62;;;;;;;16.27;43.61;100403.15;1622122;88;21984;-84
2021/10/31 10:27:50;;;;;;;15.90;6.90;;;;;;;16.22;43.11;100404.72;1625228;86;20952;-85
2021/10/31 10:30:20;;;;;;;14.70;10.23;;;;;;;16.14;43.14;100402.83;1637703;85;21019;-78
2021/10/31 10:32:53;;;;;;;17.82;10.28;;;;;;;16.15;43.60;100396.95;1646692;87;21063;-73
2021/10/31 10:35:24;;;;;;;10.93;6.90;;;;;;;16.22;43.12;100392.25;1634412;86;21083;-75
2021/10/31 10:37:51;;;;;;;10.75;6.00;;;;;;;16.33;42.64;100398.23;1656683;85;21220;-75
2021/10/31 10:40:23;;;;;;;18.15;10.08;;;;;;;16.37;42.31;100390.88;1643828;84;21072;-79
2021/10/31 10:42:52;;;;;;;;;;;;;;;16.33;42.79;100387.16;1629672;85;20996;-82
2021/10/31 10:45:25;;;;;;;19.10;10.50;;;;;;;16.16;42.38;100390.84;1620685;88;20451;-84
2021/10/31 10:47:56;;;;;;;12.03;6.40;;;;;;;16.04;42.89;100386.00;1620353;88;21067;-81
2021/10/31 10:50:29;;;;;;;14.28;6.22;;;;;;;16.27;43.07;100387.91;1621418;88;21116;-87
2021/10/31 10:52:56;;;;;;;12.63;6.08;;;;;;;16.34;42.38;100378.51;1620705;88;21527;-79
2021/10/31 10:55:27;;;;;;;9.40;6.08;;;;;;;16.25;42.42;100377.73;1620786;86;21054;-81
2021/10/31 10:57:59;;;;;;;23.35;6.87;;;;;;;16.22;42.52;100375.63;1620193;88;21043;-78
2021/10/31 11:00:34;;;;;;;29.90;7.10;;;;;;;16.14;42.64;100374.56;1635514;85;21052;-77
2021/10/31 11:03:07;;;;;;;10.82;6.03;;;;;;;16.28;43.16;100370.14;1639444;86;21170;-79
2021/10/31 11:05:38;;;;;;;10.98;5.62;;;;;;;16.72;42.47;100353.53;1640314;86;21519;-84
2021/10/31 11:08:15;;;;;;;8.50;5.67;;;;;;;17.00;42.29;100362.09;1639624;87;20977;-81
2021/10/31 11:10:48;;;;;;;14.50;7.50;;;;;;;17.34;40.57;100360.14;1636995;87;21017;-77
2021/10/31 11:13:17;;;;;;;11.00;5.90;;;;;;;17.41;40.27;100356.23;1639427;87;21028;-78
2021/10/31 11:15:44;;;;;;;12.90;7.33;;;;;;;17.39;40.56;100352.98;1639727;87;21550;-80
2021/10/31 11:18:11;;;;;;;12.65;7.35;;;;;;;17.50;41.13;100358.34;1639698;87;21550;-78
2021/10/31 11:20:41;;;;;;;16.10;7.80;;;;;;;17.72;40.25;100357.17;1637552;86;21087;-76